createdAt,value
2022-09-07T00:02:30.068Z,4.30
2022-09-07T00:05:01.967Z,4.90
2022-09-07T00:07:33.868Z,4.10
2022-09-07T00:10:06.233Z,4.40
2022-09-07T00:12:38.119Z,4.60
2022-09-07T00:15:12.969Z,4.30
2022-09-07T00:17:44.819Z,4.30
2022-09-07T00:20:16.806Z,4.60
2022-09-07T00:22:49.087Z,4.50
2022-09-07T00:25:21.035Z,4.40
2022-09-07T00:27:52.909Z,4.10
2022-09-07T00:30:24.751Z,4.10
2022-09-07T00:32:56.579Z,4.70
2022-09-07T00:35:28.541Z,3.90
2022-09-07T00:38:00.369Z,4.00
2022-09-07T00:40:32.482Z,4.30
2022-09-07T00:43:04.546Z,4.40
2022-09-07T00:45:36.418Z,4.10
2022-09-07T00:48:13.745Z,4.10
2022-09-07T00:50:48.998Z,4.30
2022-09-07T00:53:24.967Z,4.50
2022-09-07T00:55:57.898Z,4.50
2022-09-07T00:58:32.025Z,4.30
2022-09-07T01:01:04.487Z,4.00
2022-09-07T01:03:42.223Z,4.20
2022-09-07T01:06:17.908Z,4.40
2022-09-07T01:08:51.646Z,4.30
2022-09-07T01:11:24.985Z,4.10
2022-09-07T01:13:58.192Z,4.10
2022-09-07T01:16:42.933Z,4.10
2022-09-07T01:19:37.098Z,4.00
2022-09-07T01:22:30.203Z,4.80
2022-09-07T01:25:08.318Z,4.30
2022-09-07T01:28:06.975Z,4.00
2022-09-07T01:30:42.064Z,4.60
2022-09-07T01:33:29.754Z,4.50
2022-09-07T01:36:12.621Z,4.30
2022-09-07T01:38:47.531Z,4.40
2022-09-07T01:41:40.136Z,4.50
2022-09-07T01:44:18.241Z,4.00
2022-09-07T01:46:57.973Z,4.00
2022-09-07T01:49:36.335Z,4.50
2022-09-07T01:52:12.835Z,4.00
2022-09-07T01:54:51.140Z,4.30
2022-09-07T01:57:28.629Z,3.90
2022-09-07T02:00:08.683Z,4.20
2022-09-07T02:02:52.757Z,4.10
2022-09-07T02:05:28.529Z,4.10
2022-09-07T02:08:07.438Z,3.70
2022-09-07T02:10:42.169Z,3.90
2022-09-07T02:13:19.116Z,4.30
2022-09-07T02:18:26.025Z,4.00
2022-09-07T02:21:00.780Z,4.10
2022-09-07T02:23:38.417Z,4.10
2022-09-07T02:26:16.445Z,4.10
2022-09-07T02:28:48.853Z,4.20
2022-09-07T02:31:20.987Z,3.90
2022-09-07T02:33:53.116Z,3.90
2022-09-07T02:36:27.570Z,4.50
2022-09-07T02:38:59.542Z,4.10
2022-09-07T02:41:37.219Z,4.40
2022-09-07T02:44:14.136Z,4.60
2022-09-07T02:47:07.005Z,4.70
2022-09-07T02:49:57.257Z,4.00
2022-09-07T02:52:41.126Z,4.20
2022-09-07T02:55:27.123Z,4.20
2022-09-07T02:58:10.509Z,3.80
2022-09-07T03:00:50.229Z,4.10
2022-09-07T03:03:30.714Z,4.50
2022-09-07T03:06:05.956Z,4.00
2022-09-07T03:08:42.839Z,4.10
2022-09-07T03:13:46.140Z,4.10
2022-09-07T03:16:18.640Z,4.10
2022-09-07T03:18:50.967Z,4.10
2022-09-07T03:21:22.861Z,4.00
2022-09-07T03:23:55.238Z,4.20
2022-09-07T03:26:27.354Z,3.90
2022-09-07T03:28:59.511Z,4.30
2022-09-07T03:31:32.914Z,3.70
2022-09-07T03:34:05.374Z,4.30
2022-09-07T03:36:37.650Z,4.10
2022-09-07T03:39:09.819Z,4.10
2022-09-07T03:41:42.261Z,4.00
2022-09-07T03:44:14.253Z,3.80
2022-09-07T03:46:46.148Z,3.50
2022-09-07T03:49:19.140Z,4.10
2022-09-07T03:51:50.996Z,3.80
2022-09-07T03:54:23.392Z,3.90
2022-09-07T03:56:55.292Z,3.60
2022-09-07T03:59:27.448Z,4.20
2022-09-07T04:01:59.338Z,3.60
2022-09-07T04:04:31.296Z,3.60
2022-09-07T04:07:03.890Z,4.10
2022-09-07T04:09:35.796Z,3.90
2022-09-07T04:12:08.029Z,3.70
2022-09-07T04:14:40.029Z,4.00
2022-09-07T04:17:14.778Z,4.10
2022-09-07T04:19:46.565Z,3.80
2022-09-07T04:22:18.501Z,3.90
2022-09-07T04:24:50.293Z,3.90
2022-09-07T04:27:22.181Z,3.80
2022-09-07T04:29:53.987Z,4.00
2022-09-07T04:32:25.912Z,4.10
2022-09-07T04:34:57.721Z,4.00
2022-09-07T04:37:30.121Z,4.00
2022-09-07T04:40:02.054Z,4.20
2022-09-07T04:42:34.048Z,3.90
2022-09-07T04:45:06.396Z,4.10
2022-09-07T04:47:40.504Z,3.80
2022-09-07T04:50:13.034Z,3.80
2022-09-07T04:52:45.109Z,4.10
2022-09-07T04:55:17.437Z,4.00
2022-09-07T04:57:51.311Z,4.10
2022-09-07T05:00:23.417Z,3.90
2022-09-07T05:02:55.339Z,4.60
2022-09-07T05:05:27.197Z,4.50
2022-09-07T05:07:59.096Z,4.10
2022-09-07T05:10:31.026Z,4.60
2022-09-07T05:13:03.261Z,4.10
2022-09-07T05:15:35.104Z,4.00
2022-09-07T05:18:07.159Z,3.60
2022-09-07T05:20:38.987Z,3.90
2022-09-07T05:23:10.992Z,4.10
2022-09-07T05:25:47.708Z,3.90
2022-09-07T05:28:19.771Z,4.00
2022-09-07T05:36:41.048Z,3.70
2022-09-07T05:39:12.952Z,3.30
2022-09-07T05:41:44.809Z,3.60
2022-09-07T05:47:09.355Z,3.30
2022-09-07T05:49:41.420Z,3.30
2022-09-07T05:52:13.467Z,3.60
2022-09-07T05:54:45.473Z,3.10
2022-09-07T05:57:17.399Z,2.80
2022-09-07T05:59:49.350Z,3.50
2022-09-07T06:02:21.641Z,3.40
2022-09-07T06:04:53.871Z,3.20
2022-09-07T06:07:25.695Z,2.90
2022-09-07T06:12:50.069Z,3.10
2022-09-07T06:15:22.070Z,3.10
2022-09-07T06:17:54.381Z,2.80
2022-09-07T06:20:26.277Z,3.20
2022-09-07T06:22:58.154Z,3.00
2022-09-07T06:25:30.045Z,3.30
2022-09-07T06:28:02.282Z,3.00
2022-09-07T06:30:34.454Z,2.60
2022-09-07T06:33:06.421Z,3.00
2022-09-07T06:35:38.574Z,2.50
2022-09-07T06:38:10.673Z,2.40
2022-09-07T06:40:44.081Z,2.70
2022-09-07T06:43:15.972Z,2.30
2022-09-07T06:45:55.367Z,2.50
2022-09-07T06:48:27.969Z,2.60
2022-09-07T06:51:01.814Z,2.40
2022-09-07T06:53:37.627Z,2.70
2022-09-07T06:56:14.018Z,3.00
2022-09-07T06:58:46.410Z,2.50
2022-09-07T07:01:20.700Z,1.90
2022-09-07T07:03:54.348Z,2.20
2022-09-07T07:06:33.793Z,2.30
2022-09-07T07:09:06.951Z,2.20
2022-09-07T07:11:38.917Z,2.10
2022-09-07T07:14:12.624Z,1.80
2022-09-07T07:16:45.006Z,2.00
2022-09-07T07:19:17.398Z,1.80
2022-09-07T07:22:10.774Z,2.10
2022-09-07T07:24:41.164Z,1.80
2022-09-07T07:27:13.064Z,2.10
2022-09-07T07:29:45.915Z,2.20
2022-09-07T07:32:18.292Z,2.00
2022-09-07T07:34:50.357Z,1.60
2022-09-07T07:37:27.401Z,2.30
2022-09-07T07:40:17.426Z,1.30
2022-09-07T07:42:51.882Z,1.50
2022-09-07T07:48:15.797Z,1.60
2022-09-07T07:50:57.709Z,1.70
2022-09-07T07:53:45.933Z,1.60
2022-09-07T07:56:18.340Z,1.90
2022-09-07T07:58:52.747Z,1.20
2022-09-07T08:01:24.973Z,1.30
2022-09-07T08:03:56.807Z,1.10
2022-09-07T08:06:28.722Z,1.00
2022-09-07T08:09:00.544Z,1.40
2022-09-07T08:11:32.479Z,1.20
2022-09-07T08:14:06.783Z,1.20
2022-09-07T08:16:38.751Z,1.00
2022-09-07T08:19:10.775Z,1.10
2022-09-07T08:21:42.657Z,1.50
2022-09-07T08:24:15.063Z,1.10
2022-09-07T08:26:48.362Z,1.40
2022-09-07T08:29:23.231Z,1.20
2022-09-07T08:31:55.551Z,1.10
2022-09-07T08:34:27.541Z,1.10
2022-09-07T08:36:59.778Z,1.40
2022-09-07T08:39:31.729Z,1.40
2022-09-07T08:42:27.894Z,1.30
2022-09-07T08:45:04.108Z,1.60
2022-09-07T08:47:42.312Z,1.30
2022-09-07T08:50:19.755Z,1.20
2022-09-07T08:52:56.674Z,1.70
2022-09-07T08:55:33.480Z,1.20
2022-09-07T08:58:22.213Z,1.40
2022-09-07T09:04:17.225Z,1.00
2022-09-07T09:07:05.224Z,0.90
2022-09-07T09:09:56.191Z,1.10
2022-09-07T09:12:37.684Z,0.80
2022-09-07T09:15:21.571Z,0.80
2022-09-07T09:18:04.079Z,1.00
2022-09-07T09:20:42.922Z,1.20
2022-09-07T09:23:17.107Z,1.10
2022-09-07T09:25:54.783Z,0.90
2022-09-07T09:28:28.954Z,0.90
2022-09-07T09:31:05.090Z,0.90
2022-09-07T09:33:37.518Z,1.40
2022-09-07T09:36:32.657Z,0.90
2022-09-07T09:39:27.617Z,1.00
2022-09-07T09:42:03.202Z,0.90
2022-09-07T09:44:38.464Z,0.80
2022-09-07T09:47:30.272Z,1.00
2022-09-07T09:50:06.916Z,1.00
2022-09-07T09:52:49.203Z,0.80
2022-09-07T09:55:34.952Z,1.00
2022-09-07T10:01:28.140Z,1.20
2022-09-07T10:04:20.289Z,1.10
2022-09-07T10:06:56.315Z,1.00
2022-09-07T10:09:37.849Z,0.90
2022-09-07T10:12:24.158Z,1.00
2022-09-07T10:14:56.723Z,1.00
2022-09-07T10:17:34.403Z,0.80
2022-09-07T10:20:34.907Z,1.10
2022-09-07T10:23:20.079Z,1.00
2022-09-07T10:25:52.225Z,1.20
2022-09-07T10:29:06.019Z,1.30
2022-09-07T10:31:23.020Z,1.20
2022-09-07T10:37:03.208Z,0.90
2022-09-07T10:39:38.862Z,0.90
2022-09-07T10:42:26.214Z,1.20
2022-09-07T10:45:07.454Z,0.80
2022-09-07T10:47:50.072Z,1.30
2022-09-07T10:50:31.063Z,1.00
2022-09-07T10:53:40.603Z,0.90
2022-09-07T10:56:15.948Z,1.00
2022-09-07T10:59:02.217Z,1.30
2022-09-07T11:01:44.705Z,1.10
2022-09-07T11:04:38.535Z,1.10
2022-09-07T11:07:23.558Z,1.00
2022-09-07T11:10:01.331Z,0.80
2022-09-07T11:12:38.296Z,0.90
2022-09-07T11:15:20.111Z,1.10
2022-09-07T11:17:57.272Z,0.90
2022-09-07T11:20:34.428Z,0.90
2022-09-07T11:23:15.589Z,1.10
2022-09-07T11:25:58.690Z,1.00
2022-09-07T11:28:38.156Z,1.00
2022-09-07T11:31:20.691Z,1.10
2022-09-07T11:37:02.332Z,1.30
2022-09-07T11:39:40.362Z,1.10
2022-09-07T11:45:20.883Z,1.20
2022-09-07T11:47:59.291Z,1.20
2022-09-07T11:50:35.304Z,1.10
2022-09-07T11:53:15.364Z,1.00
2022-09-07T11:55:51.144Z,1.10
2022-09-07T11:58:38.865Z,0.90
2022-09-07T12:01:25.389Z,1.00
2022-09-07T12:04:17.626Z,1.00
2022-09-07T12:07:03.344Z,1.10
2022-09-07T12:09:54.257Z,1.00
2022-09-07T12:12:42.240Z,1.10
2022-09-07T12:15:27.091Z,0.80
2022-09-07T12:18:14.073Z,1.10
2022-09-07T12:20:47.619Z,1.00
2022-09-07T12:23:28.998Z,1.20
2022-09-07T12:26:50.122Z,1.10
2022-09-07T12:29:25.662Z,1.00
2022-09-07T12:32:07.384Z,1.00
2022-09-07T12:34:54.494Z,1.10
2022-09-07T12:37:41.992Z,0.80
2022-09-07T12:40:50.230Z,1.30
2022-09-07T12:44:02.006Z,1.10
2022-09-07T12:46:53.029Z,1.30
2022-09-07T12:49:58.595Z,1.00
2022-09-07T12:52:53.421Z,1.00
2022-09-07T12:58:58.112Z,1.00
2022-09-07T13:01:44.945Z,1.40
2022-09-07T13:04:42.661Z,1.20
2022-09-07T13:07:36.623Z,1.20
2022-09-07T13:10:27.135Z,1.30
2022-09-07T13:13:04.909Z,1.30
2022-09-07T13:15:42.028Z,1.00
2022-09-07T13:18:35.949Z,1.20
2022-09-07T13:21:36.326Z,1.20
2022-09-07T13:24:47.413Z,1.10
2022-09-07T13:27:44.673Z,1.30
2022-09-07T13:30:27.623Z,0.90
2022-09-07T13:33:30.136Z,1.10
2022-09-07T13:36:05.052Z,1.10
2022-09-07T13:38:42.841Z,1.10
2022-09-07T13:41:20.049Z,1.20
2022-09-07T13:43:59.626Z,0.70
2022-09-07T13:46:55.304Z,0.80
2022-09-07T13:49:47.017Z,0.80
2022-09-07T13:52:24.801Z,1.00
2022-09-07T13:55:27.234Z,1.00
2022-09-07T13:58:12.246Z,1.10
2022-09-07T14:00:55.418Z,1.30
2022-09-07T14:03:31.438Z,0.90
2022-09-07T14:06:31.263Z,1.30
2022-09-07T14:09:05.791Z,0.90
2022-09-07T14:11:46.414Z,1.00
2022-09-07T14:14:21.393Z,1.00
2022-09-07T14:17:02.447Z,1.30
2022-09-07T14:19:41.757Z,0.90
2022-09-07T14:22:17.822Z,1.30
2022-09-07T14:24:53.590Z,1.70
2022-09-07T14:27:27.771Z,0.80
2022-09-07T14:30:18.225Z,0.90
2022-09-07T14:32:52.483Z,1.10
2022-09-07T14:35:26.962Z,1.30
2022-09-07T14:38:05.866Z,1.10
2022-09-07T14:40:38.110Z,1.20
2022-09-07T14:43:30.289Z,1.20
2022-09-07T14:46:19.797Z,1.20
2022-09-07T14:48:55.273Z,1.00
2022-09-07T14:51:35.515Z,1.00
2022-09-07T14:54:10.585Z,1.20
2022-09-07T14:56:43.776Z,1.50
2022-09-07T14:59:42.604Z,1.20
2022-09-07T15:02:37.068Z,1.30
2022-09-07T15:05:29.833Z,1.00
2022-09-07T15:08:03.376Z,1.10
2022-09-07T15:10:41.202Z,1.00
2022-09-07T15:13:32.252Z,1.20
2022-09-07T15:16:06.805Z,3.20
2022-09-07T15:18:55.804Z,1.20
2022-09-07T15:21:29.331Z,1.10
2022-09-07T15:24:03.903Z,1.20
2022-09-07T15:29:34.877Z,1.20
2022-09-07T15:32:12.465Z,1.40
2022-09-07T15:34:44.307Z,1.30
2022-09-07T15:40:17.729Z,1.30
2022-09-07T15:43:16.384Z,1.30
2022-09-07T15:45:41.472Z,1.70
2022-09-07T15:48:17.369Z,1.10
2022-09-07T15:50:49.681Z,1.20
2022-09-07T15:56:13.693Z,1.50
2022-09-07T15:58:45.725Z,1.60
2022-09-07T16:04:13.713Z,1.50
2022-09-07T16:06:48.123Z,1.60
2022-09-07T16:09:21.699Z,1.60
2022-09-07T16:11:54.116Z,1.70
2022-09-07T16:14:26.286Z,1.60
2022-09-07T16:19:50.191Z,1.60
2022-09-07T16:25:14.611Z,1.10
2022-09-07T16:27:46.545Z,1.50
2022-09-07T16:30:18.647Z,1.30
2022-09-07T16:32:50.907Z,1.20
2022-09-07T16:35:23.119Z,1.40
2022-09-07T16:40:48.490Z,1.30
2022-09-07T16:43:20.569Z,1.30
2022-09-07T16:46:04.470Z,1.60
2022-09-07T16:48:37.471Z,1.50
2022-09-07T16:51:10.702Z,1.70
2022-09-07T16:53:43.131Z,1.40
2022-09-07T16:56:17.156Z,1.80
2022-09-07T16:58:51.422Z,1.30
2022-09-07T17:01:26.246Z,2.30
2022-09-07T17:03:58.347Z,1.80
2022-09-07T17:06:32.083Z,1.30
2022-09-07T17:09:05.022Z,1.80
2022-09-07T17:11:38.552Z,2.00
2022-09-07T17:14:10.549Z,1.60
2022-09-07T17:16:43.158Z,1.70
2022-09-07T17:19:31.857Z,1.70
2022-09-07T17:22:04.307Z,1.60
2022-09-07T17:24:36.420Z,1.60
2022-09-07T17:27:08.457Z,1.70
2022-09-07T17:29:40.566Z,1.70
2022-09-07T17:32:27.825Z,1.80
2022-09-07T17:35:00.568Z,1.60
2022-09-07T17:37:33.775Z,1.60
2022-09-07T17:40:07.499Z,1.50
2022-09-07T17:45:33.727Z,1.80
2022-09-07T17:48:05.870Z,1.80
2022-09-07T17:50:37.678Z,2.10
2022-09-07T17:53:09.745Z,1.60
2022-09-07T17:55:41.701Z,1.70
2022-09-07T17:58:14.014Z,2.10
2022-09-07T18:00:46.653Z,1.60
2022-09-07T18:03:19.094Z,2.10
2022-09-07T18:05:55.814Z,1.90
2022-09-07T18:08:28.664Z,1.80
2022-09-07T18:13:59.967Z,2.10
2022-09-07T18:16:34.378Z,6.00
2022-09-07T18:19:08.674Z,8.60
2022-09-07T18:21:42.477Z,13.00
2022-09-07T18:24:17.856Z,17.10
2022-09-07T18:26:52.562Z,14.10
2022-09-07T18:29:29.940Z,8.90
2022-09-07T18:32:09.409Z,11.60
2022-09-07T18:34:45.874Z,10.80
2022-09-07T18:37:21.735Z,9.30
2022-09-07T18:39:54.598Z,7.80
2022-09-07T18:42:26.617Z,8.00
2022-09-07T18:47:50.314Z,7.90
2022-09-07T18:50:23.299Z,6.70
2022-09-07T18:53:04.164Z,5.70
2022-09-07T18:55:46.172Z,5.20
2022-09-07T18:58:19.332Z,4.50
2022-09-07T19:00:57.683Z,5.30
2022-09-07T19:03:29.723Z,3.80
2022-09-07T19:06:03.879Z,4.40
2022-09-07T19:08:37.506Z,3.60
2022-09-07T19:11:10.778Z,3.20
2022-09-07T19:13:42.655Z,2.70
2022-09-07T19:16:17.163Z,2.90
2022-09-07T19:18:50.231Z,3.30
2022-09-07T19:21:24.246Z,3.00
2022-09-07T19:24:01.963Z,3.10
2022-09-07T19:26:36.526Z,2.40
2022-09-07T19:29:15.734Z,3.10
2022-09-07T19:32:04.163Z,2.50
2022-09-07T19:34:39.343Z,2.70
2022-09-07T19:37:12.986Z,2.80
2022-09-07T19:39:45.023Z,2.60
2022-09-07T19:42:17.113Z,2.50
2022-09-07T19:44:49.107Z,2.70
2022-09-07T19:47:21.167Z,2.80
2022-09-07T19:49:53.464Z,2.70
2022-09-07T19:52:25.596Z,3.30
2022-09-07T19:55:00.402Z,2.90
2022-09-07T19:57:32.589Z,2.50
2022-09-07T20:00:05.439Z,3.10
2022-09-07T20:02:43.997Z,3.00
2022-09-07T20:05:16.882Z,2.80
2022-09-07T20:07:48.732Z,2.90
2022-09-07T20:10:20.641Z,2.80
2022-09-07T20:12:52.631Z,2.80
2022-09-07T20:15:24.713Z,2.70
2022-09-07T20:17:56.609Z,2.80
2022-09-07T20:20:28.489Z,3.70
2022-09-07T20:23:00.286Z,3.20
2022-09-07T20:25:32.117Z,3.20
2022-09-07T20:28:04.178Z,3.50
2022-09-07T20:30:36.068Z,2.80
2022-09-07T20:33:07.888Z,3.10
2022-09-07T20:35:43.663Z,3.20
2022-09-07T20:38:17.186Z,3.00
2022-09-07T20:40:57.318Z,3.00
2022-09-07T20:43:30.792Z,3.50
2022-09-07T20:46:02.952Z,3.10
2022-09-07T20:48:35.103Z,3.50
2022-09-07T20:51:09.572Z,2.80
2022-09-07T20:53:42.088Z,3.20
2022-09-07T20:56:15.621Z,3.10
2022-09-07T20:58:48.647Z,3.10
2022-09-07T21:01:21.318Z,3.50
2022-09-07T21:03:55.017Z,3.30
2022-09-07T21:06:28.765Z,3.40
2022-09-07T21:09:01.134Z,3.40
2022-09-07T21:11:35.281Z,3.50
2022-09-07T21:14:08.839Z,2.90
2022-09-07T21:16:41.341Z,3.20
2022-09-07T21:19:13.189Z,3.00
2022-09-07T21:21:45.602Z,3.10
2022-09-07T21:24:20.845Z,2.90
2022-09-07T21:26:53.731Z,3.10
2022-09-07T21:29:26.650Z,3.40
2022-09-07T21:31:58.479Z,3.00
2022-09-07T21:34:30.334Z,2.90
2022-09-07T21:37:02.135Z,3.10
2022-09-07T21:39:34.248Z,2.90
2022-09-07T21:42:06.483Z,3.10
2022-09-07T21:44:38.441Z,3.10
2022-09-07T21:47:10.305Z,3.60
2022-09-07T21:49:44.556Z,3.30
2022-09-07T21:52:16.430Z,3.20
2022-09-07T21:54:48.273Z,2.90
2022-09-07T21:57:20.062Z,3.10
2022-09-07T21:59:51.840Z,2.80
2022-09-07T22:02:23.946Z,3.00
2022-09-07T22:04:55.960Z,3.00
2022-09-07T22:07:27.845Z,3.30
2022-09-07T22:09:59.610Z,3.00
2022-09-07T22:12:31.483Z,3.50
2022-09-07T22:15:03.965Z,3.10
2022-09-07T22:17:35.822Z,3.60
2022-09-07T22:20:09.644Z,3.30
2022-09-07T22:22:41.438Z,3.60
2022-09-07T22:25:13.382Z,3.20
2022-09-07T22:27:45.184Z,3.20
2022-09-07T22:30:17.589Z,3.10
2022-09-07T22:32:50.537Z,3.10
2022-09-07T22:35:22.728Z,3.20
2022-09-07T22:37:54.785Z,3.10
2022-09-07T22:40:26.610Z,3.30
2022-09-07T22:42:58.417Z,3.40
2022-09-07T22:45:30.318Z,3.30
2022-09-07T22:48:02.514Z,3.50
2022-09-07T22:50:34.894Z,3.20
2022-09-07T22:53:06.669Z,3.00
2022-09-07T22:55:42.048Z,3.40
2022-09-07T22:58:13.917Z,3.10
2022-09-07T23:00:47.019Z,3.00
2022-09-07T23:03:19.541Z,3.50
2022-09-07T23:05:51.432Z,3.40
2022-09-07T23:08:23.299Z,3.20
2022-09-07T23:10:55.683Z,3.60
2022-09-07T23:13:27.837Z,3.50
2022-09-07T23:16:03.389Z,3.30
2022-09-07T23:18:36.125Z,3.60
2022-09-07T23:21:08.393Z,4.00
2022-09-07T23:23:40.460Z,3.50
2022-09-07T23:26:12.425Z,3.60
2022-09-07T23:28:44.240Z,3.70
2022-09-07T23:31:16.067Z,3.90
2022-09-07T23:33:47.933Z,3.40
2022-09-07T23:36:20.563Z,3.70
2022-09-07T23:38:54.556Z,3.30
2022-09-07T23:41:27.570Z,3.20
2022-09-07T23:43:59.858Z,3.20
2022-09-07T23:46:31.860Z,3.40
2022-09-07T23:49:03.811Z,3.00
2022-09-07T23:51:36.100Z,3.40
2022-09-07T23:54:08.240Z,3.40
2022-09-07T23:56:40.077Z,3.70
2022-09-07T23:59:12.649Z,3.30
